ADDS METAR Data INFO
IDs: Format: Raw Decoded Include TAF

Data at: 0201 UTC 19 Jul 2018

KLVJ 190153Z AUTO 20005KT 10SM CLR 29/24 A2995 RMK AO2 SLP140 T02940244
KLVJ 190053Z AUTO 18010KT 10SM CLR 31/25 A2994 RMK AO2 SLP137 T03110250
KLVJ 182353Z AUTO 20006KT 10SM CLR 33/23 A2992 RMK AO2 SLP130 T03330233 10350 20322 56014
KLVJ 182253Z AUTO 23006KT 10SM CLR 34/23 A2993 RMK AO2 SLP132 T03440233
KLVJ 182153Z AUTO 19005KT 10SM CLR 34/23 A2994 RMK AO2 SLP136 T03440233
KLVJ 182053Z AUTO VRB04KT 10SM CLR 34/23 A2996 RMK AO2 SLP144 T03440228 58018
KLVJ 181953Z AUTO VRB03KT 10SM FEW044 34/23 A2998 RMK AO2 SLP150 T03390228
KLVJ 181853Z AUTO 27007KT 10SM CLR 33/23 A2999 RMK AO2 SLP155 T03330228
KLVJ 181753Z AUTO 22007KT 10SM FEW037 32/23 A3001 RMK AO2 SLP161 T03220233 10322 20250 58012
KLVJ 181653Z AUTO 26007KT 10SM FEW033 32/24 A3003 RMK AO2 SLP168 T03170239
KLVJ 181633Z AUTO 24006KT 10SM SCT031 31/24 A3004 RMK AO2 T03110239
KLVJ 181624Z AUTO 28006KT 10SM BKN029 31/24 A3004 RMK AO2 T03060244
KLVJ 181608Z AUTO 27008KT 10SM SCT026 31/24 A3004 RMK AO2 T03060244
KLVJ 181553Z AUTO 26006KT 10SM BKN024 30/24 A3004 RMK AO2 SLP171 T03000244
KLVJ 181534Z AUTO VRB05KT 9SM BKN023 30/25 A3004 RMK AO2 T03000250
KLVJ 181453Z AUTO 25009KT 9SM FEW017 SCT023 29/26 A3005 RMK AO2 SLP173 T02890256 52005
KLVJ 181418Z AUTO 25010KT 9SM BKN018 28/26 A3005 RMK AO2 T02830261
KLVJ 181353Z AUTO 22008KT 9SM CLR 28/26 A3004 RMK AO2 SLP172 T02780256
KLVJ 181253Z AUTO 24004KT 8SM CLR 26/26 A3004 RMK AO2 SLP170 T02610256
KLVJ 181153Z AUTO 22004KT 7SM CLR 25/24 A3003 RMK AO2 SLP168 T02500244 10261 20250 51004
KLVJ 181053Z AUTO 24004KT 9SM CLR 25/25 A3003 RMK AO2 SLP167 T02500250
KLVJ 180953Z AUTO 23003KT 9SM CLR 25/25 A3002 RMK AO2 SLP166 T02500250
KLVJ 180853Z AUTO 23003KT 9SM CLR 26/25 A3002 RMK AO2 SLP164 T02560250 56002
KLVJ 180753Z AUTO 22003KT 10SM CLR 26/25 A3002 RMK AO2 SLP165 T02560250
KLVJ 180653Z AUTO 20003KT 10SM CLR 26/26 A3002 RMK AO2 SLP164 T02610256
KLVJ 180553Z AUTO 18003KT 10SM CLR 26/26 A3003 RMK AO2 SLP166 T02610256 10328 20261 403500239 58003
KLVJ 180453Z AUTO 22003KT 10SM CLR 27/26 A3003 RMK AO2 SLP169 T02670256
KLVJ 180353Z AUTO 20003KT 10SM CLR 27/25 A3005 RMK AO2 SLP173 T02720250
KLVJ 180253Z AUTO 19005KT 10SM CLR 28/25 A3004 RMK AO2 SLP170 T02830250 53010
KLVJ 180153Z AUTO 18006KT 10SM CLR 30/24 A3002 RMK AO2 SLP165 T03000244
KLVJ 180053Z AUTO 18009KT 10SM CLR 31/25 A3001 RMK AO2 SLP161 T03110250
KLVJ 172353Z AUTO 16009KT 10SM CLR 33/26 A3000 RMK AO2 SLP159 T03280261 10350 20317 56007
KLVJ 172253Z AUTO 16010KT 10SM CLR 33/26 A3001 RMK AO2 SLP160 T03330256
KLVJ 172153Z AUTO 23004KT 10SM FEW047 34/23 A3001 RMK AO2 SLP162 T03440228
KLVJ 172053Z AUTO 28005KT 10SM CLR 34/23 A3002 RMK AO2 SLP166 T03440228 58019
KLVJ 171953Z AUTO VRB04KT 10SM SCT044 34/23 A3005 RMK AO2 SLP175 T03390233
KLVJ 171853Z AUTO VRB05KT 10SM SCT040 33/23 A3007 RMK AO2 SLP181 T03330233
KLVJ 171753Z AUTO VRB04KT 10SM FEW037 32/23 A3008 RMK AO2 SLP185 T03220233 10322 20239 58010
KLVJ 171653Z AUTO 23006KT 10SM FEW031 31/24 A3009 RMK AO2 SLP188 T03110239
KLVJ 171553Z AUTO 26006KT 9SM FEW025 30/24 A3011 RMK AO2 SLP194 T03000244
KLVJ 171532Z AUTO 23010KT 9SM FEW022 29/25 A3010 RMK AO2 T02940250
KLVJ 171500Z AUTO 27007KT 9SM BKN018 BKN027 29/26 A3011 RMK AO2 T02890256
KLVJ 171453Z AUTO VRB04KT 9SM SCT018 SCT024 29/26 A3011 RMK AO2 SLP195 T02940256 53010